createdAt,value
2022-10-30T00:01:42.220Z,19.18
2022-10-30T00:04:08.352Z,19.15
2022-10-30T00:06:34.453Z,19.15
2022-10-30T00:09:00.550Z,19.16
2022-10-30T00:11:26.632Z,19.18
2022-10-30T00:13:52.768Z,19.19
2022-10-30T00:16:18.871Z,19.20
2022-10-30T00:18:44.970Z,19.21
2022-10-30T00:21:11.390Z,19.23
2022-10-30T00:23:37.501Z,19.21
2022-10-30T00:26:03.593Z,19.18
2022-10-30T00:28:29.706Z,19.15
2022-10-30T00:30:55.810Z,19.15
2022-10-30T00:33:22.129Z,19.14
2022-10-30T00:35:48.257Z,19.10
2022-10-30T00:38:14.355Z,19.09
2022-10-30T00:40:40.449Z,19.07
2022-10-30T00:43:06.573Z,19.03
2022-10-30T00:45:32.668Z,19.01
2022-10-30T00:47:59.106Z,18.94
2022-10-30T00:52:56.891Z,18.84
2022-10-30T00:55:23.138Z,18.74
2022-10-30T00:57:49.264Z,18.76
2022-10-30T01:00:15.368Z,18.79
2022-10-30T01:02:41.547Z,18.65
2022-10-30T01:05:07.779Z,18.66
2022-10-30T01:07:33.890Z,18.63
2022-10-30T01:10:00.009Z,18.64
2022-10-30T01:12:26.133Z,18.62
2022-10-30T01:14:52.291Z,18.62
2022-10-30T01:17:18.388Z,18.64
2022-10-30T01:19:44.530Z,18.64
2022-10-30T01:22:10.620Z,18.64
2022-10-30T01:24:36.708Z,18.56
2022-10-30T01:27:02.836Z,18.43
2022-10-30T01:29:28.929Z,18.29
2022-10-30T01:31:55.027Z,18.25
2022-10-30T01:34:21.139Z,18.29
2022-10-30T01:36:47.240Z,18.31
2022-10-30T01:39:13.337Z,18.25
2022-10-30T01:41:39.458Z,18.30
2022-10-30T01:44:05.556Z,18.22
2022-10-30T01:46:31.644Z,18.24
2022-10-30T01:48:57.832Z,18.13
2022-10-30T01:51:23.933Z,18.00
2022-10-30T01:53:50.057Z,17.96
2022-10-30T01:56:16.177Z,17.95
2022-10-30T01:58:42.269Z,17.91
2022-10-30T02:01:08.496Z,17.82
2022-10-30T02:03:34.664Z,17.80
2022-10-30T02:06:00.777Z,17.67
2022-10-30T02:08:26.873Z,17.67
2022-10-30T02:10:52.997Z,17.58
2022-10-30T02:13:19.095Z,17.53
2022-10-30T02:15:45.204Z,17.49
2022-10-30T02:18:11.677Z,17.32
2022-10-30T02:20:37.804Z,17.29
2022-10-30T02:23:04.131Z,17.20
2022-10-30T02:25:30.477Z,17.26
2022-10-30T02:27:56.580Z,17.23
2022-10-30T02:30:22.697Z,17.22
2022-10-30T02:32:48.827Z,17.04
2022-10-30T02:35:14.922Z,17.12
2022-10-30T02:37:41.032Z,17.00
2022-10-30T02:40:07.200Z,16.94
2022-10-30T02:42:33.294Z,16.99
2022-10-30T02:44:59.424Z,16.91
2022-10-30T02:47:25.548Z,16.76
2022-10-30T02:49:51.738Z,16.72
2022-10-30T02:52:17.825Z,16.74
2022-10-30T02:54:43.949Z,16.71
2022-10-30T02:57:10.049Z,16.51
2022-10-30T02:59:36.142Z,16.51
2022-10-30T03:02:02.377Z,16.41
2022-10-30T03:04:28.550Z,16.33
2022-10-30T03:06:54.658Z,16.35
2022-10-30T03:09:20.784Z,16.32
2022-10-30T03:11:46.871Z,16.46
2022-10-30T03:14:12.971Z,16.56
2022-10-30T03:16:39.166Z,16.40
2022-10-30T03:19:05.289Z,16.52
2022-10-30T03:21:31.397Z,16.45
2022-10-30T03:23:57.527Z,16.35
2022-10-30T03:26:23.616Z,16.44
2022-10-30T03:28:49.719Z,16.47
2022-10-30T03:31:15.833Z,16.46
2022-10-30T03:33:41.950Z,16.50
2022-10-30T03:36:08.043Z,16.28
2022-10-30T03:38:34.164Z,16.18
2022-10-30T03:41:00.248Z,16.08
2022-10-30T03:43:26.349Z,16.00
2022-10-30T03:45:52.455Z,16.02
2022-10-30T03:48:18.544Z,15.97
2022-10-30T03:50:44.646Z,16.08
2022-10-30T03:53:10.816Z,16.18
2022-10-30T03:55:36.892Z,16.08
2022-10-30T03:58:02.992Z,15.90
2022-10-30T04:00:29.153Z,15.71
2022-10-30T04:02:55.474Z,15.82
2022-10-30T04:05:21.850Z,15.80
2022-10-30T04:07:47.969Z,15.71
2022-10-30T04:10:16.719Z,15.70
2022-10-30T04:12:45.300Z,15.69
2022-10-30T04:15:11.468Z,15.59
2022-10-30T04:17:37.566Z,15.44
2022-10-30T04:20:03.683Z,15.35
2022-10-30T04:22:29.808Z,15.26
2022-10-30T04:24:55.908Z,15.30
2022-10-30T04:27:22.000Z,15.43
2022-10-30T04:29:48.112Z,15.43
2022-10-30T04:32:14.212Z,15.34
2022-10-30T04:34:40.342Z,15.31
2022-10-30T04:37:06.503Z,15.15
2022-10-30T04:39:33.038Z,15.10
2022-10-30T04:41:59.144Z,15.03
2022-10-30T04:44:25.263Z,14.98
2022-10-30T04:46:51.362Z,14.99
2022-10-30T04:49:17.454Z,15.05
2022-10-30T04:51:43.564Z,14.88
2022-10-30T04:54:09.668Z,14.91
2022-10-30T04:56:35.764Z,14.88
2022-10-30T04:59:01.918Z,14.74
2022-10-30T05:01:28.123Z,14.73
2022-10-30T05:03:54.993Z,14.64
2022-10-30T05:06:21.318Z,14.62
2022-10-30T05:08:47.493Z,14.58
2022-10-30T05:11:13.595Z,14.60
2022-10-30T05:13:39.709Z,14.54
2022-10-30T05:16:05.817Z,14.42
2022-10-30T05:18:31.934Z,14.70
2022-10-30T05:20:58.073Z,14.60
2022-10-30T05:23:24.175Z,14.55
2022-10-30T05:25:50.305Z,14.49
2022-10-30T05:28:16.429Z,14.46
2022-10-30T05:30:42.549Z,14.35
2022-10-30T05:33:08.659Z,14.35
2022-10-30T05:35:34.784Z,14.48
2022-10-30T05:38:01.045Z,14.38
2022-10-30T05:40:27.171Z,14.36
2022-10-30T05:42:53.277Z,14.33
2022-10-30T05:45:19.400Z,14.12
2022-10-30T05:47:45.490Z,14.09
2022-10-30T05:50:11.641Z,14.04
2022-10-30T05:52:37.726Z,14.06
2022-10-30T05:55:03.812Z,14.02
2022-10-30T05:57:29.967Z,13.89
2022-10-30T05:59:56.082Z,13.83
2022-10-30T06:02:22.222Z,13.88
2022-10-30T06:04:48.405Z,13.75
2022-10-30T06:07:14.495Z,13.90
2022-10-30T06:09:40.592Z,14.04
2022-10-30T06:12:06.745Z,14.09
2022-10-30T06:14:32.832Z,14.15
2022-10-30T06:16:58.927Z,14.19
2022-10-30T06:19:25.053Z,14.29
2022-10-30T06:21:51.165Z,14.38
2022-10-30T06:24:17.294Z,14.42
2022-10-30T06:26:43.407Z,14.49
2022-10-30T06:29:09.513Z,14.54
2022-10-30T06:31:35.633Z,14.59
2022-10-30T06:34:02.127Z,14.60
2022-10-30T06:36:28.226Z,14.62
2022-10-30T06:38:54.313Z,14.63
2022-10-30T06:41:23.342Z,14.63
2022-10-30T06:43:51.915Z,14.66
2022-10-30T06:46:18.087Z,14.60
2022-10-30T06:48:44.212Z,14.57
2022-10-30T06:51:10.321Z,14.65
2022-10-30T06:53:36.442Z,14.56
2022-10-30T06:56:02.610Z,14.50
2022-10-30T06:58:28.704Z,14.41
2022-10-30T07:00:54.808Z,14.48
2022-10-30T07:03:21.229Z,14.39
2022-10-30T07:05:47.413Z,14.50
2022-10-30T07:08:13.539Z,14.41
2022-10-30T07:10:40.132Z,14.36
2022-10-30T07:13:06.269Z,14.24
2022-10-30T07:15:32.470Z,14.09
2022-10-30T07:17:58.867Z,14.07
2022-10-30T07:20:25.302Z,14.10
2022-10-30T07:22:51.398Z,14.23
2022-10-30T07:25:17.509Z,14.20
2022-10-30T07:27:43.606Z,14.12
2022-10-30T07:30:09.730Z,14.16
2022-10-30T07:32:35.855Z,14.09
2022-10-30T07:35:01.987Z,14.09
2022-10-30T07:37:28.104Z,14.00
2022-10-30T07:39:54.285Z,14.00
2022-10-30T07:42:20.381Z,13.92
2022-10-30T07:44:46.478Z,14.00
2022-10-30T07:47:12.584Z,13.95
2022-10-30T07:49:38.704Z,13.95
2022-10-30T07:52:04.794Z,14.12
2022-10-30T07:54:30.951Z,14.19
2022-10-30T07:56:57.067Z,14.31
2022-10-30T07:59:23.188Z,14.39
2022-10-30T08:01:49.562Z,14.42
2022-10-30T08:04:15.770Z,14.52
2022-10-30T08:06:41.860Z,14.55
2022-10-30T08:09:07.996Z,14.57
2022-10-30T08:11:34.130Z,14.54
2022-10-30T08:14:00.233Z,14.56
2022-10-30T08:16:26.346Z,14.64
2022-10-30T08:18:52.463Z,14.73
2022-10-30T08:21:18.564Z,14.81
2022-10-30T08:23:44.682Z,14.81
2022-10-30T08:26:10.788Z,14.83
2022-10-30T08:28:36.898Z,15.01
2022-10-30T08:31:03.016Z,15.15
2022-10-30T08:33:29.119Z,15.15
2022-10-30T08:35:55.224Z,15.21
2022-10-30T08:38:21.391Z,15.24
2022-10-30T08:40:47.480Z,15.38
2022-10-30T08:43:13.571Z,15.45
2022-10-30T08:45:39.705Z,15.48
2022-10-30T08:48:05.795Z,15.50
2022-10-30T08:50:31.900Z,15.50
2022-10-30T08:52:58.222Z,15.59
2022-10-30T08:55:24.589Z,15.64
2022-10-30T08:57:50.688Z,15.71
2022-10-30T09:00:16.797Z,15.77
2022-10-30T09:02:43.033Z,15.79
2022-10-30T09:05:09.354Z,15.83
2022-10-30T09:07:35.604Z,15.88
2022-10-30T09:10:01.692Z,15.93
2022-10-30T09:12:27.797Z,16.02
2022-10-30T09:14:53.957Z,16.06
2022-10-30T09:17:20.060Z,16.12
2022-10-30T09:19:46.169Z,16.17
2022-10-30T09:22:12.279Z,16.23
2022-10-30T09:24:38.376Z,16.32
2022-10-30T09:27:04.472Z,16.48
2022-10-30T09:29:32.151Z,16.58
2022-10-30T09:31:58.247Z,16.65
2022-10-30T09:34:24.373Z,16.71
2022-10-30T09:36:50.628Z,16.79
2022-10-30T09:39:16.745Z,16.90
2022-10-30T09:41:45.811Z,16.98
2022-10-30T09:44:14.656Z,17.07
2022-10-30T09:46:40.748Z,17.13
2022-10-30T09:49:06.912Z,17.21
2022-10-30T09:51:33.096Z,17.28
2022-10-30T09:53:59.204Z,17.36
2022-10-30T09:56:25.301Z,17.44
2022-10-30T09:58:51.423Z,17.54
2022-10-30T10:01:17.612Z,17.65
2022-10-30T10:03:43.827Z,17.77
2022-10-30T10:06:10.009Z,17.86
2022-10-30T10:08:36.113Z,17.96
2022-10-30T10:11:02.271Z,18.05
2022-10-30T10:13:28.378Z,18.14
2022-10-30T10:15:54.482Z,18.14
2022-10-30T10:18:20.752Z,18.25
2022-10-30T10:20:46.991Z,18.33
2022-10-30T10:23:13.117Z,18.45
2022-10-30T10:25:39.237Z,18.46
2022-10-30T10:28:05.353Z,18.58
2022-10-30T10:30:31.450Z,18.61
2022-10-30T10:32:57.882Z,18.72
2022-10-30T10:35:24.257Z,18.79
2022-10-30T10:37:50.357Z,18.85
2022-10-30T10:40:16.442Z,18.94
2022-10-30T10:42:42.563Z,19.00
2022-10-30T10:45:08.660Z,19.11
2022-10-30T10:47:34.758Z,19.16
2022-10-30T10:50:00.878Z,19.20
2022-10-30T10:52:27.001Z,19.27
2022-10-30T10:54:53.110Z,19.36
2022-10-30T10:57:19.233Z,19.44
2022-10-30T10:59:45.327Z,19.53
2022-10-30T11:02:11.507Z,19.54
2022-10-30T11:04:37.689Z,19.65
2022-10-30T11:07:03.803Z,19.70
2022-10-30T11:09:29.912Z,19.75
2022-10-30T11:11:56.025Z,19.81
2022-10-30T11:14:22.127Z,19.88
2022-10-30T11:16:48.219Z,19.98
2022-10-30T11:19:14.360Z,20.05
2022-10-30T11:21:40.460Z,20.08
2022-10-30T11:24:06.595Z,20.13
2022-10-30T11:26:32.728Z,20.20
2022-10-30T11:28:58.851Z,20.20
2022-10-30T11:31:24.957Z,20.24
2022-10-30T11:33:51.110Z,20.27
2022-10-30T11:36:17.207Z,20.37
2022-10-30T11:38:43.303Z,20.43
2022-10-30T11:41:09.438Z,20.50
2022-10-30T11:43:35.533Z,20.58
2022-10-30T11:46:01.628Z,20.66
2022-10-30T11:48:27.750Z,20.78
2022-10-30T11:50:53.925Z,20.81
2022-10-30T11:53:20.035Z,20.86
2022-10-30T11:55:46.152Z,20.98
2022-10-30T11:58:12.276Z,21.01
2022-10-30T12:00:38.390Z,21.09
2022-10-30T12:03:04.526Z,21.19
2022-10-30T12:05:30.640Z,21.26
2022-10-30T12:07:56.749Z,21.28
2022-10-30T12:10:22.879Z,21.41
2022-10-30T12:12:48.981Z,21.44
2022-10-30T12:15:15.089Z,21.49
2022-10-30T12:17:41.205Z,21.57
2022-10-30T12:20:07.331Z,21.63
2022-10-30T12:22:33.448Z,21.74
2022-10-30T12:24:59.739Z,21.80
2022-10-30T12:27:25.901Z,21.81
2022-10-30T12:30:07.814Z,21.84
2022-10-30T12:32:39.324Z,21.89
2022-10-30T12:35:05.694Z,21.87
2022-10-30T12:37:31.806Z,21.92
2022-10-30T12:39:57.965Z,21.96
2022-10-30T12:42:24.093Z,22.03
2022-10-30T12:44:50.198Z,22.03
2022-10-30T12:47:16.328Z,22.00
2022-10-30T12:49:42.440Z,22.05
2022-10-30T12:52:08.552Z,22.06
2022-10-30T12:54:34.669Z,22.10
2022-10-30T12:57:00.760Z,22.12
2022-10-30T12:59:26.852Z,22.13
2022-10-30T13:01:53.154Z,22.12
2022-10-30T13:04:19.384Z,22.18
2022-10-30T13:06:45.475Z,22.19
2022-10-30T13:09:11.786Z,22.25
2022-10-30T13:11:37.885Z,22.22
2022-10-30T13:14:03.979Z,22.22
2022-10-30T13:16:30.097Z,22.19
2022-10-30T13:18:56.193Z,22.17
2022-10-30T13:21:22.300Z,22.12
2022-10-30T13:23:48.420Z,22.15
2022-10-30T13:26:14.509Z,22.15
2022-10-30T13:28:40.605Z,22.13
2022-10-30T13:31:06.765Z,22.11
2022-10-30T13:33:32.878Z,22.00
2022-10-30T13:35:58.971Z,22.02
2022-10-30T13:38:25.100Z,21.99
2022-10-30T13:40:51.189Z,21.99
2022-10-30T13:43:17.303Z,21.95
2022-10-30T13:45:43.422Z,21.95
2022-10-30T13:48:09.507Z,21.92
2022-10-30T13:50:35.607Z,21.89
2022-10-30T13:53:02.058Z,21.87
2022-10-30T13:55:28.429Z,21.83
2022-10-30T13:57:54.545Z,21.81
2022-10-30T14:00:20.677Z,21.79
2022-10-30T14:02:46.905Z,21.77
2022-10-30T14:05:13.121Z,21.78
2022-10-30T14:07:39.272Z,21.78
2022-10-30T14:10:05.373Z,21.73
2022-10-30T14:12:31.477Z,21.69
2022-10-30T14:14:57.587Z,21.65
2022-10-30T14:17:23.684Z,21.67
2022-10-30T14:19:49.794Z,21.59
2022-10-30T14:22:15.956Z,21.57
2022-10-30T14:24:42.047Z,21.60
2022-10-30T14:27:08.126Z,21.63
2022-10-30T14:29:34.294Z,21.60
2022-10-30T14:32:00.398Z,21.52
2022-10-30T14:34:26.526Z,21.51
2022-10-30T14:36:52.632Z,21.46
2022-10-30T14:39:18.727Z,21.44
2022-10-30T14:41:44.832Z,21.38
2022-10-30T14:44:10.946Z,21.34
2022-10-30T14:46:37.048Z,21.30
2022-10-30T14:49:03.158Z,21.26
2022-10-30T14:51:29.268Z,21.28
2022-10-30T14:53:55.372Z,21.27
2022-10-30T14:56:21.485Z,21.19
2022-10-30T14:58:47.620Z,21.15
2022-10-30T15:01:13.805Z,21.10
2022-10-30T15:03:40.127Z,21.06
2022-10-30T15:06:06.307Z,21.05
2022-10-30T15:08:32.452Z,21.05
2022-10-30T15:10:58.539Z,20.97
2022-10-30T15:13:24.686Z,20.94
2022-10-30T15:15:50.771Z,20.88
2022-10-30T15:18:16.899Z,20.88
2022-10-30T15:20:43.035Z,20.82
2022-10-30T15:23:09.153Z,20.78
2022-10-30T15:25:35.247Z,20.77
2022-10-30T15:28:01.801Z,20.75
2022-10-30T15:30:28.266Z,20.69
2022-10-30T15:32:54.361Z,20.70
2022-10-30T15:35:20.538Z,20.63
2022-10-30T15:37:46.616Z,20.71
2022-10-30T15:40:12.708Z,20.72
2022-10-30T15:42:38.829Z,20.71
2022-10-30T15:45:04.941Z,20.60
2022-10-30T15:47:31.044Z,20.43
2022-10-30T15:49:57.226Z,20.33
2022-10-30T15:52:23.352Z,20.29
2022-10-30T15:54:49.439Z,20.19
2022-10-30T15:57:49.349Z,20.12
2022-10-30T16:00:01.713Z,20.06
2022-10-30T16:02:27.986Z,20.01
2022-10-30T16:04:54.157Z,19.96
2022-10-30T16:07:20.251Z,19.91
2022-10-30T16:09:46.371Z,19.87
2022-10-30T16:12:12.925Z,19.78
2022-10-30T16:14:39.096Z,19.70
2022-10-30T16:17:05.227Z,19.65
2022-10-30T16:19:31.324Z,19.62
2022-10-30T16:21:57.410Z,19.58
2022-10-30T16:24:23.533Z,19.53
2022-10-30T16:26:49.626Z,19.44
2022-10-30T16:29:15.722Z,19.40
2022-10-30T16:31:41.876Z,19.40
2022-10-30T16:34:08.003Z,19.28
2022-10-30T16:36:34.100Z,19.23
2022-10-30T16:39:00.525Z,19.22
2022-10-30T16:41:27.211Z,19.13
2022-10-30T16:43:53.508Z,19.05
2022-10-30T16:46:19.618Z,19.03
2022-10-30T16:48:45.703Z,18.98
2022-10-30T16:51:11.805Z,18.97
2022-10-30T16:53:37.959Z,18.89
2022-10-30T16:56:04.064Z,18.83
2022-10-30T16:58:30.158Z,18.78
2022-10-30T17:00:56.357Z,18.69
2022-10-30T17:03:22.496Z,18.65
2022-10-30T17:05:48.595Z,18.65
2022-10-30T17:08:14.710Z,18.63
2022-10-30T17:10:40.810Z,18.55
2022-10-30T17:13:06.904Z,18.53
2022-10-30T17:15:33.519Z,18.53
2022-10-30T17:17:59.905Z,18.51
2022-10-30T17:20:28.289Z,18.49
2022-10-30T17:22:57.600Z,18.45
2022-10-30T17:25:23.931Z,18.43
2022-10-30T17:27:50.037Z,18.34
2022-10-30T17:30:16.152Z,18.32
2022-10-30T17:32:42.274Z,18.28
2022-10-30T17:35:08.374Z,18.27
2022-10-30T17:37:34.505Z,18.28
2022-10-30T17:40:00.603Z,18.17
2022-10-30T17:42:26.710Z,18.18
2022-10-30T17:44:52.824Z,18.18
2022-10-30T17:47:18.938Z,18.18
2022-10-30T17:49:45.041Z,18.11
2022-10-30T17:52:11.152Z,18.02
2022-10-30T17:54:37.249Z,18.00
2022-10-30T17:57:03.369Z,17.94
2022-10-30T17:59:29.485Z,17.93
2022-10-30T18:01:55.698Z,17.92
2022-10-30T18:04:21.871Z,17.85
2022-10-30T18:06:47.986Z,17.85
2022-10-30T18:09:14.103Z,17.82
2022-10-30T18:11:40.194Z,17.81
2022-10-30T18:14:06.306Z,17.76
2022-10-30T18:16:32.487Z,17.72
2022-10-30T18:18:58.597Z,17.69
2022-10-30T18:21:25.007Z,17.67
2022-10-30T18:23:52.898Z,17.64
2022-10-30T18:26:19.414Z,17.58
2022-10-30T18:28:45.539Z,17.60
2022-10-30T18:31:11.654Z,17.57
2022-10-30T18:33:37.784Z,17.50
2022-10-30T18:36:03.913Z,17.49
2022-10-30T18:38:30.016Z,17.48
2022-10-30T18:40:56.095Z,17.48
2022-10-30T18:43:22.217Z,17.45
2022-10-30T18:45:48.307Z,17.43
2022-10-30T18:48:14.395Z,17.40
2022-10-30T18:50:40.808Z,17.33
2022-10-30T18:53:06.901Z,17.34
2022-10-30T18:55:33.039Z,17.31
2022-10-30T18:57:59.536Z,17.25
2022-10-30T19:00:26.485Z,17.28
2022-10-30T19:02:52.805Z,17.17
2022-10-30T19:05:19.113Z,17.20
2022-10-30T19:07:45.214Z,17.09
2022-10-30T19:10:11.324Z,17.11
2022-10-30T19:12:42.194Z,17.14
2022-10-30T19:15:08.529Z,17.15
2022-10-30T19:17:34.616Z,17.12
2022-10-30T19:20:00.734Z,17.13
2022-10-30T19:22:26.836Z,17.09
2022-10-30T19:24:52.938Z,17.08
2022-10-30T19:27:19.079Z,17.04
2022-10-30T19:29:45.251Z,17.02
2022-10-30T19:32:11.363Z,17.00
2022-10-30T19:34:37.659Z,16.94
2022-10-30T19:37:03.783Z,16.91
2022-10-30T19:39:29.930Z,16.80
2022-10-30T19:41:56.046Z,16.79
2022-10-30T19:44:22.158Z,16.74
2022-10-30T19:46:48.251Z,16.71
2022-10-30T19:49:14.352Z,16.62
2022-10-30T19:51:40.504Z,16.63
2022-10-30T19:54:06.597Z,16.63
2022-10-30T19:56:32.706Z,16.59
2022-10-30T19:58:58.817Z,16.61
2022-10-30T20:01:25.135Z,16.60
2022-10-30T20:03:51.360Z,16.60
2022-10-30T20:06:17.477Z,16.56
2022-10-30T20:08:43.596Z,16.49
2022-10-30T20:11:09.721Z,16.46
2022-10-30T20:13:35.861Z,16.44
2022-10-30T20:16:01.950Z,16.30
2022-10-30T20:18:28.204Z,16.28
2022-10-30T20:20:54.306Z,16.30
2022-10-30T20:23:20.471Z,16.24
2022-10-30T20:25:46.623Z,16.27
2022-10-30T20:28:12.754Z,16.27
2022-10-30T20:30:38.864Z,16.23
2022-10-30T20:33:05.070Z,16.11
2022-10-30T20:35:31.176Z,16.14
2022-10-30T20:37:57.335Z,16.10
2022-10-30T20:40:23.446Z,16.13
2022-10-30T20:42:49.539Z,16.02
2022-10-30T20:45:15.628Z,16.08
2022-10-30T20:47:41.724Z,16.04
2022-10-30T20:50:07.833Z,16.01
2022-10-30T20:52:34.112Z,15.93
2022-10-30T20:55:01.148Z,15.91
2022-10-30T20:57:27.311Z,15.93
2022-10-30T20:59:53.436Z,15.98
2022-10-30T21:02:19.648Z,15.98
2022-10-30T21:04:45.851Z,15.96
2022-10-30T21:07:11.956Z,15.94
2022-10-30T21:09:38.074Z,15.96
2022-10-30T21:12:04.194Z,15.96
2022-10-30T21:14:30.300Z,15.91
2022-10-30T21:16:56.418Z,15.95
2022-10-30T21:19:22.537Z,15.98
2022-10-30T21:21:48.641Z,16.00
2022-10-30T21:24:14.766Z,16.03
2022-10-30T21:26:40.869Z,16.06
2022-10-30T21:29:06.986Z,15.99
2022-10-30T21:31:33.094Z,16.02
2022-10-30T21:33:59.199Z,15.99
2022-10-30T21:36:25.297Z,16.03
2022-10-30T21:38:51.430Z,15.98
2022-10-30T21:41:17.539Z,15.94
2022-10-30T21:43:43.659Z,15.88
2022-10-30T21:46:09.899Z,15.87
2022-10-30T21:48:36.054Z,15.83
2022-10-30T21:51:02.181Z,15.84
2022-10-30T21:53:28.329Z,15.62
2022-10-30T21:55:54.469Z,15.65
2022-10-30T21:58:20.572Z,15.50
2022-10-30T22:00:47.710Z,15.42
2022-10-30T22:03:13.897Z,15.35
2022-10-30T22:05:39.984Z,15.34
2022-10-30T22:08:06.109Z,15.36
2022-10-30T22:10:32.201Z,15.33
2022-10-30T22:12:58.360Z,15.23
2022-10-30T22:15:24.532Z,15.24
2022-10-30T22:17:50.625Z,15.24
2022-10-30T22:20:16.720Z,15.11
2022-10-30T22:22:42.833Z,15.12
2022-10-30T22:25:08.924Z,15.14
2022-10-30T22:27:35.016Z,15.09
2022-10-30T22:30:01.413Z,14.93
2022-10-30T22:32:27.507Z,14.94
2022-10-30T22:34:53.601Z,14.98
2022-10-30T22:37:19.714Z,14.91
2022-10-30T22:39:45.879Z,14.82
2022-10-30T22:42:11.971Z,14.77
2022-10-30T22:44:38.078Z,14.63
2022-10-30T22:47:04.184Z,14.61
2022-10-30T22:49:30.285Z,14.57
2022-10-30T22:51:56.417Z,14.63
2022-10-30T22:54:22.528Z,14.62
2022-10-30T22:56:48.622Z,14.57
2022-10-30T22:59:14.745Z,14.28
2022-10-30T23:01:40.871Z,14.33
2022-10-30T23:04:07.046Z,14.40
2022-10-30T23:06:33.213Z,14.52
2022-10-30T23:08:59.349Z,14.61
2022-10-30T23:11:25.567Z,14.52
2022-10-30T23:13:51.732Z,14.46
2022-10-30T23:16:17.816Z,14.46
2022-10-30T23:18:43.911Z,14.49
2022-10-30T23:21:10.028Z,14.33
2022-10-30T23:23:36.116Z,14.32
2022-10-30T23:26:02.259Z,14.23
2022-10-30T23:28:28.381Z,14.14
2022-10-30T23:30:54.483Z,14.18
2022-10-30T23:33:20.579Z,14.16
2022-10-30T23:35:46.696Z,14.15
2022-10-30T23:38:12.800Z,13.85
2022-10-30T23:40:38.885Z,14.00
2022-10-30T23:43:05.122Z,13.97
2022-10-30T23:45:31.351Z,13.88
2022-10-30T23:47:57.759Z,13.90
2022-10-30T23:50:24.072Z,13.89
2022-10-30T23:52:50.185Z,13.78
2022-10-30T23:55:16.271Z,13.89
2022-10-30T23:57:42.415Z,13.88
